Time;durP1;ratioP1;P1;durP2;ratioP2;P2;SDS_P1;SDS_P2;PMS_P1;PMS_P2;Temp;Humidity;BMP_temperature;BMP_pressure;BME280_temperature;BME280_humidity;BME280_pressure;Samples;Min_cycle;Max_cycle;Signal;HPM_P1;HPM_P2
2022/01/10 00:00:46;;;;;;;17.10;11.00;;;-9.80;99.90;;;;;;5115790;28;20764;-76
2022/01/10 00:03:12;;;;;;;12.97;9.77;;;-10.00;99.90;;;;;;5116217;28;20405;-77
2022/01/10 00:05:38;;;;;;;16.50;10.37;;;-10.40;99.90;;;;;;5117140;28;20397;-78
2022/01/10 00:08:04;;;;;;;18.40;10.00;;;-10.30;99.90;;;;;;5116323;28;20848;-75
2022/01/10 00:10:31;;;;;;;21.30;10.97;;;-10.00;99.90;;;;;;5115808;28;20199;-82
2022/01/10 00:12:58;;;;;;;15.37;10.07;;;-9.80;99.90;;;;;;5117065;28;20832;-82
2022/01/10 00:15:23;;;;;;;12.60;10.47;;;-9.90;99.90;;;;;;5116660;28;20392;-78
2022/01/10 00:17:49;;;;;;;16.57;12.13;;;-9.60;99.90;;;;;;5115065;28;20420;-81
2022/01/10 00:20:18;;;;;;;12.57;10.30;;;-9.50;99.90;;;;;;5115747;28;20202;-75
2022/01/10 00:22:47;;;;;;;19.53;12.30;;;-9.50;99.90;;;;;;5116848;28;20400;-74
2022/01/10 00:25:14;;;;;;;15.73;10.20;;;-9.50;99.90;;;;;;5116052;28;20397;-75
2022/01/10 00:27:40;;;;;;;21.93;10.47;;;-9.80;99.90;;;;;;5115658;28;20417;-74
2022/01/10 00:30:07;;;;;;;14.57;10.37;;;-9.70;99.90;;;;;;5115194;28;20444;-74
2022/01/10 00:32:33;;;;;;;19.17;10.07;;;-9.40;99.90;;;;;;5116737;28;20489;-73
2022/01/10 00:34:59;;;;;;;15.10;9.53;;;-9.30;99.90;;;;;;5114762;28;20498;-74
2022/01/10 00:37:25;;;;;;;21.93;10.33;;;-9.10;99.90;;;;;;5116574;28;20470;-74
2022/01/10 00:39:50;;;;;;;15.13;9.33;;;-9.30;99.90;;;;;;5116675;28;20174;-75
2022/01/10 00:42:16;;;;;;;14.47;10.10;;;-9.40;99.90;;;;;;5116144;28;20509;-78
2022/01/10 00:44:50;;;;;;;19.60;9.97;;;-7.90;99.90;;;;;;5116507;28;20524;-79
2022/01/10 00:47:16;;;;;;;18.40;11.50;;;-9.40;99.90;;;;;;5115526;28;20406;-78
2022/01/10 00:49:42;;;;;;;19.17;11.53;;;-9.10;99.90;;;;;;5116600;28;20734;-75
2022/01/10 00:52:08;;;;;;;17.30;12.13;;;-9.10;99.90;;;;;;5115875;28;20516;-76
2022/01/10 00:54:34;;;;;;;15.50;10.13;;;-8.70;99.90;;;;;;5116230;28;20395;-76
2022/01/10 00:56:59;;;;;;;13.80;10.37;;;-8.50;99.90;;;;;;5114837;28;20616;-79
2022/01/10 00:59:25;;;;;;;14.57;11.27;;;-8.80;99.90;;;;;;5116292;28;20171;-81
2022/01/10 01:01:51;;;;;;;18.13;11.37;;;-9.30;99.90;;;;;;5114201;28;20262;-81
2022/01/10 01:04:17;;;;;;;24.10;10.93;;;-9.60;99.90;;;;;;5116193;28;20171;-75
2022/01/10 01:06:43;;;;;;;20.73;13.37;;;-9.80;99.90;;;;;;5116319;28;20164;-74
2022/01/10 01:09:12;;;;;;;17.07;11.37;;;-9.50;99.90;;;;;;5116136;28;20889;-77
2022/01/10 01:14:50;;;;;;;16.63;9.80;;;-9.80;99.90;;;;;;5116364;28;20394;-81
2022/01/10 01:20:28;;;;;;;14.93;11.17;;;-9.40;99.90;;;;;;5115372;28;20403;-80
2022/01/10 01:25:55;;;;;;;21.57;10.90;;;-9.70;99.90;;;;;;5073110;28;20874;-75
2022/01/10 01:28:21;;;;;;;17.87;11.27;;;-9.50;99.90;;;;;;5105585;28;20411;-78
2022/01/10 01:30:47;;;;;;;16.83;12.30;;;-9.40;99.90;;;;;;5115676;28;20251;-80
2022/01/10 01:33:15;;;;;;;23.90;11.43;;;-9.30;99.90;;;;;;5116051;28;20243;-80
2022/01/10 01:35:41;;;;;;;20.87;11.77;;;-9.00;99.90;;;;;;5115984;28;20217;-75
2022/01/10 01:38:07;;;;;;;17.20;11.17;;;-9.30;99.90;;;;;;5115106;28;20397;-79
2022/01/10 01:40:43;;;;;;;17.93;10.00;;;-9.10;99.90;;;;;;5115614;28;20456;-81
2022/01/10 01:43:09;;;;;;;18.07;11.40;;;-9.10;99.90;;;;;;5115916;28;20409;-81
2022/01/10 01:45:46;;;;;;;17.67;11.07;;;-6.90;99.90;;;;;;5115928;28;20482;-79
2022/01/10 01:48:12;;;;;;;17.80;12.63;;;-9.20;99.90;;;;;;5114980;28;20229;-78
2022/01/10 01:50:38;;;;;;;18.50;12.40;;;-8.90;99.90;;;;;;5115878;28;20530;-81
2022/01/10 01:53:06;;;;;;;17.67;10.80;;;-8.90;99.90;;;;;;5115729;28;20484;-80
2022/01/10 01:55:32;;;;;;;18.67;11.80;;;-9.00;99.90;;;;;;5114831;28;20442;-77
2022/01/10 01:57:59;;;;;;;19.20;11.40;;;-6.90;99.90;;;;;;5115590;28;20474;-79
2022/01/10 02:00:26;;;;;;;21.40;11.10;;;-8.30;99.90;;;;;;5114620;28;20490;-77
2022/01/10 02:02:52;;;;;;;19.23;12.07;;;-8.20;99.90;;;;;;5114599;28;20413;-79
2022/01/10 02:05:19;;;;;;;19.83;10.47;;;-9.00;99.90;;;;;;5113872;28;20467;-79
2022/01/10 02:07:45;;;;;;;19.60;11.90;;;-9.40;99.90;;;;;;5114453;28;20442;-79
2022/01/10 02:10:12;;;;;;;18.90;12.30;;;-9.60;99.90;;;;;;5118478;28;20451;-81
2022/01/10 02:12:38;;;;;;;21.87;12.47;;;-9.70;99.90;;;;;;5119268;28;20403;-82
2022/01/10 02:15:05;;;;;;;21.70;12.67;;;-9.40;99.90;;;;;;5119296;28;20710;-80
2022/01/10 02:17:36;;;;;;;16.40;12.27;;;-9.60;99.90;;;;;;5118455;28;20213;-82
2022/01/10 02:20:05;;;;;;;23.03;11.03;;;-9.60;99.90;;;;;;5119453;28;20399;-82
2022/01/10 02:22:31;;;;;;;24.60;12.63;;;-9.50;99.90;;;;;;5118514;28;20685;-82
2022/01/10 02:24:56;;;;;;;17.37;9.47;;;-9.50;99.90;;;;;;5118999;28;20457;-82
2022/01/10 02:27:24;;;;;;;22.50;10.37;;;-7.50;99.90;;;;;;5119145;28;20575;-83
2022/01/10 02:29:49;;;;;;;15.47;10.60;;;-9.70;99.90;;;;;;5119273;28;20202;-84
2022/01/10 02:32:16;;;;;;;15.43;10.43;;;-10.20;99.90;;;;;;5118166;28;20400;-83
2022/01/10 03:01:54;;;;;;;18.83;10.30;;;-10.20;99.90;;;;;;5113644;27;20542;-77
2022/01/10 03:04:20;;;;;;;17.10;9.47;;;-8.80;99.90;;;;;;5113300;28;20406;-74
2022/01/10 03:06:48;;;;;;;19.07;10.23;;;-9.50;99.90;;;;;;5112499;28;20479;-78
2022/01/10 03:09:14;;;;;;;20.50;9.87;;;-9.90;99.90;;;;;;5111543;28;20481;-82
2022/01/10 03:11:41;;;;;;;18.23;10.63;;;-10.60;99.90;;;;;;5112453;28;20734;-76
2022/01/10 03:14:07;;;;;;;13.50;9.97;;;-10.80;99.90;;;;;;5112430;28;20196;-80
2022/01/10 03:16:33;;;;;;;18.70;10.17;;;-10.60;99.90;;;;;;5112854;28;20395;-75
2022/01/10 03:18:59;;;;;;;18.83;10.60;;;-9.70;99.90;;;;;;5112286;28;20168;-80
2022/01/10 03:21:25;;;;;;;16.07;11.70;;;-10.70;99.90;;;;;;5113295;28;20443;-80
2022/01/10 03:23:52;;;;;;;14.90;11.57;;;-10.50;99.90;;;;;;5116823;28;20254;-78
2022/01/10 03:26:19;;;;;;;16.00;9.23;;;-10.30;99.90;;;;;;5115210;28;20212;-79
2022/01/10 03:28:44;;;;;;;19.20;10.67;;;-10.40;99.90;;;;;;5112373;28;20697;-82
2022/01/10 03:31:10;;;;;;;17.67;10.83;;;-10.40;99.90;;;;;;5113388;28;20423;-77
2022/01/10 03:33:36;;;;;;;15.37;9.47;;;-10.70;99.90;;;;;;5112171;28;20274;-82
2022/01/10 03:36:02;;;;;;;18.53;10.70;;;-10.50;99.90;;;;;;5112504;28;20170;-75
2022/01/10 04:10:25;;;;;;;18.37;11.67;;;-10.50;99.90;;;;;;5112938;27;20620;-80
2022/01/10 04:12:51;;;;;;;18.23;12.10;;;-7.90;99.90;;;;;;5112355;28;20425;-80
2022/01/10 04:15:17;;;;;;;15.30;8.73;;;-8.50;99.90;;;;;;5112563;28;20399;-81
2022/01/10 04:17:43;;;;;;;19.00;10.33;;;-9.40;99.90;;;;;;5112614;28;20218;-80
2022/01/10 04:20:10;;;;;;;16.50;10.23;;;-9.50;99.90;;;;;;5112342;28;20255;-76
2022/01/10 04:22:35;;;;;;;15.53;10.60;;;-9.60;99.90;;;;;;5113412;28;20258;-77
2022/01/10 04:25:03;;;;;;;22.97;10.73;;;-10.00;99.90;;;;;;5113459;28;20481;-76
2022/01/10 04:27:32;;;;;;;16.47;10.60;;;-10.10;99.90;;;;;;5113395;28;20171;-80
2022/01/10 04:29:59;;;;;;;21.37;10.47;;;-10.30;99.90;;;;;;5112500;28;20459;-79
2022/01/10 04:32:27;;;;;;;14.37;9.40;;;-10.30;99.90;;;;;;5113362;28;20402;-75
2022/01/10 04:34:53;;;;;;;21.17;11.00;;;-10.30;99.90;;;;;;5112950;28;20396;-80
2022/01/10 04:37:18;;;;;;;22.27;12.33;;;-10.40;99.90;;;;;;5111824;28;20410;-74
2022/01/10 04:39:44;;;;;;;21.37;10.30;;;-10.20;99.90;;;;;;5113313;28;20182;-81
2022/01/10 04:42:10;;;;;;;16.70;11.10;;;-9.90;99.90;;;;;;5112130;28;20372;-76
2022/01/10 04:44:35;;;;;;;14.97;11.20;;;-9.80;99.90;;;;;;5113035;28;20168;-74
2022/01/10 04:47:01;;;;;;;16.87;11.40;;;-9.60;99.90;;;;;;5111511;28;20182;-77
2022/01/10 04:49:27;;;;;;;20.50;11.20;;;-10.50;99.90;;;;;;5112726;28;20202;-75
2022/01/10 04:51:54;;;;;;;26.43;13.70;;;-9.40;99.90;;;;;;5112665;28;20168;-75
2022/01/10 04:54:20;;;;;;;19.93;12.33;;;-8.30;99.90;;;;;;5112662;28;20579;-81
2022/01/10 04:56:46;;;;;;;23.37;11.20;;;-8.90;99.90;;;;;;5112799;28;20396;-79
2022/01/10 04:59:12;;;;;;;25.87;11.73;;;-9.00;99.90;;;;;;5111813;28;20182;-80
2022/01/10 05:01:39;;;;;;;19.50;11.33;;;-8.90;99.90;;;;;;5111828;28;20714;-79
2022/01/10 05:04:04;;;;;;;17.57;10.97;;;-8.90;99.90;;;;;;5112351;28;20646;-78
2022/01/10 05:06:30;;;;;;;19.03;11.10;;;-9.00;99.90;;;;;;5112580;28;20489;-76
2022/01/10 05:08:56;;;;;;;17.13;11.00;;;-8.10;99.90;;;;;;5112365;28;20223;-75
2022/01/10 05:11:21;;;;;;;15.60;11.53;;;-8.80;99.90;;;;;;5111619;28;20247;-79
2022/01/10 05:13:48;;;;;;;18.53;12.57;;;-8.70;99.90;;;;;;5112479;28;20559;-79
2022/01/10 05:16:15;;;;;;;19.30;12.73;;;-9.10;99.90;;;;;;5111288;28;20174;-77
2022/01/10 05:18:41;;;;;;;24.70;11.83;;;-9.00;99.90;;;;;;5110357;28;20444;-76
2022/01/10 05:21:06;;;;;;;19.97;13.23;;;-8.80;99.90;;;;;;5102371;28;20440;-81
2022/01/10 05:23:32;;;;;;;19.50;11.53;;;-8.20;99.90;;;;;;5097727;28;20182;-74
2022/01/10 05:25:58;;;;;;;29.00;12.30;;;-8.40;99.90;;;;;;5097641;28;20484;-80
2022/01/10 05:28:24;;;;;;;17.40;10.53;;;-8.20;99.90;;;;;;5097768;28;20481;-81
2022/01/10 05:30:51;;;;;;;23.00;12.70;;;-8.80;99.90;;;;;;5098476;28;20620;-79
2022/01/10 05:33:18;;;;;;;15.00;11.43;;;-8.90;99.90;;;;;;5097184;28;20177;-79
2022/01/10 05:35:44;;;;;;;17.80;10.83;;;-8.30;99.90;;;;;;5098418;28;20820;-81
2022/01/10 05:38:11;;;;;;;21.83;12.37;;;-8.70;99.90;;;;;;5096637;28;20409;-78
2022/01/10 05:40:37;;;;;;;27.60;13.27;;;-8.60;99.90;;;;;;5098367;28;20393;-79
2022/01/10 05:43:03;;;;;;;26.30;12.67;;;-7.40;99.90;;;;;;5098360;28;20406;-79
2022/01/10 05:45:29;;;;;;;13.80;11.03;;;-8.30;99.90;;;;;;5097656;28;20518;-76
2022/01/10 05:47:55;;;;;;;17.80;11.07;;;-8.00;99.90;;;;;;5097981;28;20170;-75
2022/01/10 05:50:32;;;;;;;19.13;11.63;;;-8.40;99.90;;;;;;5097202;28;20463;-77
2022/01/10 05:52:59;;;;;;;28.00;11.93;;;-8.60;99.90;;;;;;5097079;28;20496;-80
2022/01/10 05:55:25;;;;;;;24.73;13.00;;;-8.50;99.90;;;;;;5097403;28;20394;-82
2022/01/10 05:57:52;;;;;;;24.00;11.87;;;-8.40;99.90;;;;;;5098023;28;20483;-80
2022/01/10 06:00:18;;;;;;;28.13;12.13;;;-8.60;99.90;;;;;;5098043;28;20402;-77
2022/01/10 06:02:43;;;;;;;19.37;13.67;;;-7.90;99.90;;;;;;5097240;28;20794;-80
2022/01/10 06:05:09;;;;;;;18.67;11.87;;;-7.60;99.90;;;;;;5097845;28;20170;-78
2022/01/10 06:07:36;;;;;;;17.90;12.47;;;-8.50;99.90;;;;;;5097328;28;20173;-74
2022/01/10 06:10:04;;;;;;;29.13;12.63;;;-8.70;99.90;;;;;;5097660;28;20514;-81
2022/01/10 06:12:30;;;;;;;18.03;12.37;;;-8.70;99.90;;;;;;5096766;28;20885;-81
2022/01/10 06:14:56;;;;;;;17.33;11.97;;;-8.50;99.90;;;;;;5096938;28;20509;-81
2022/01/10 06:17:22;;;;;;;15.47;11.17;;;-6.70;99.90;;;;;;5097539;28;20181;-80
2022/01/10 06:19:47;;;;;;;14.63;11.57;;;-8.30;99.90;;;;;;5097683;28;20177;-81
2022/01/10 06:22:14;;;;;;;18.37;13.67;;;-8.60;99.90;;;;;;5096824;28;20188;-78
2022/01/10 06:24:40;;;;;;;18.67;13.10;;;-8.70;99.90;;;;;;5097677;28;20257;-77
2022/01/10 06:27:06;;;;;;;17.77;11.60;;;-8.80;99.90;;;;;;5097367;28;20396;-81
2022/01/10 06:29:32;;;;;;;15.53;11.10;;;-8.60;99.90;;;;;;5097399;28;20449;-79
2022/01/10 06:31:58;;;;;;;14.73;11.20;;;-8.80;99.90;;;;;;5095433;28;20235;-80
2022/01/10 06:34:23;;;;;;;14.73;9.80;;;-7.30;99.90;;;;;;5097330;28;20165;-76
2022/01/10 06:36:49;;;;;;;14.30;11.50;;;-8.10;99.90;;;;;;5097447;28;20181;-76
2022/01/10 06:39:15;;;;;;;17.67;11.57;;;-7.50;99.90;;;;;;5095461;28;20189;-82
2022/01/10 06:41:41;;;;;;;14.27;10.27;;;-8.00;99.90;;;;;;5095964;28;20409;-81
2022/01/10 06:44:07;;;;;;;14.87;11.30;;;-8.40;99.90;;;;;;5097089;28;20238;-82
2022/01/10 06:46:33;;;;;;;14.37;9.67;;;-8.20;99.90;;;;;;5096869;28;20180;-75
2022/01/10 06:48:59;;;;;;;13.27;10.60;;;-8.90;99.90;;;;;;5094929;28;20196;-75
2022/01/10 06:51:25;;;;;;;10.70;9.47;;;-7.00;99.90;;;;;;5097176;28;20173;-76
2022/01/10 06:53:50;;;;;;;14.30;9.33;;;-8.60;99.90;;;;;;5096925;28;20565;-75
2022/01/10 06:56:16;;;;;;;14.40;9.70;;;-7.50;99.90;;;;;;5096910;28;20170;-74
2022/01/10 06:58:42;;;;;;;9.97;8.03;;;-8.60;99.90;;;;;;5096944;28;20177;-73
2022/01/10 07:01:08;;;;;;;11.73;9.60;;;-8.10;99.90;;;;;;5096313;28;20285;-75
2022/01/10 07:03:34;;;;;;;12.00;10.57;;;-9.70;99.90;;;;;;5109996;28;20400;-76
2022/01/10 07:05:59;;;;;;;11.73;9.00;;;-9.50;99.90;;;;;;5122435;28;20184;-80
2022/01/10 07:08:25;;;;;;;11.00;8.90;;;-9.70;99.90;;;;;;5115755;28;20471;-82
2022/01/10 07:10:51;;;;;;;14.23;8.20;;;-9.50;99.90;;;;;;5117074;28;20528;-82
2022/01/10 07:13:17;;;;;;;9.43;8.43;;;-7.10;99.90;;;;;;5098248;28;20174;-80
2022/01/10 07:15:44;;;;;;;10.70;7.47;;;-6.70;99.90;;;;;;5098596;28;20211;-78
2022/01/10 07:18:10;;;;;;;12.03;7.63;;;-5.90;99.90;;;;;;5108469;28;20177;-80
2022/01/10 07:20:36;;;;;;;13.43;8.90;;;-7.20;99.90;;;;;;5116562;28;20473;-82
2022/01/10 07:23:01;;;;;;;10.70;7.83;;;-6.50;99.90;;;;;;5111703;28;20172;-81
2022/01/10 07:25:27;;;;;;;9.67;7.33;;;-7.60;99.90;;;;;;5104648;28;20183;-81
2022/01/10 07:27:53;;;;;;;11.90;7.70;;;-8.90;99.90;;;;;;5096759;28;20572;-81
2022/01/10 07:30:19;;;;;;;7.97;7.13;;;-8.50;99.90;;;;;;5095688;28;20586;-75
2022/01/10 07:32:45;;;;;;;11.60;7.03;;;-9.40;99.90;;;;;;5089895;28;20195;-77
2022/01/10 07:35:11;;;;;;;8.67;7.40;;;-9.30;99.90;;;;;;5085409;28;20189;-75
2022/01/10 07:37:37;;;;;;;9.43;6.90;;;-9.20;99.90;;;;;;5082849;28;20184;-77
2022/01/10 07:40:04;;;;;;;10.10;7.03;;;-9.40;99.90;;;;;;5095551;28;20429;-77
2022/01/10 07:42:30;;;;;;;8.73;7.83;;;-9.60;99.90;;;;;;5095720;28;20829;-77
2022/01/10 07:44:55;;;;;;;9.60;7.57;;;-8.80;99.90;;;;;;5093810;28;20459;-77
2022/01/10 07:47:28;;;;;;;9.37;7.30;;;-10.20;99.90;;;;;;5086900;28;20596;-75
2022/01/10 07:49:55;;;;;;;13.07;7.57;;;-9.70;99.90;;;;;;5087448;28;20212;-78
2022/01/10 07:52:22;;;;;;;12.33;7.97;;;-9.70;99.90;;;;;;5094020;28;20413;-75
2022/01/10 07:54:48;;;;;;;12.30;7.33;;;-9.60;99.90;;;;;;5095094;28;20893;-77
2022/01/10 07:57:14;;;;;;;9.50;7.63;;;-9.30;99.90;;;;;;5093788;28;20449;-77
2022/01/10 07:59:40;;;;;;;10.10;7.77;;;-9.50;99.90;;;;;;5092990;28;20507;-77
2022/01/10 08:02:07;;;;;;;12.80;8.27;;;-9.60;99.90;;;;;;5095175;28;20418;-75
2022/01/10 08:04:33;;;;;;;15.17;8.83;;;-9.30;99.90;;;;;;5094666;28;20693;-77
2022/01/10 08:06:59;;;;;;;13.20;9.17;;;-8.00;99.90;;;;;;5094573;28;20398;-77
2022/01/10 08:09:25;;;;;;;11.80;8.73;;;-7.70;99.90;;;;;;5094393;28;20217;-77
2022/01/10 08:11:50;;;;;;;9.93;7.47;;;-7.20;99.90;;;;;;5093333;28;20178;-76
2022/01/10 08:14:16;;;;;;;10.10;7.53;;;-7.30;99.90;;;;;;5095042;28;20168;-77
2022/01/10 08:16:46;;;;;;;15.30;9.10;;;-7.00;99.90;;;;;;5091470;28;20304;-76
2022/01/10 08:19:12;;;;;;;11.57;7.40;;;-9.00;99.90;;;;;;5086885;28;20258;-77
2022/01/10 08:21:38;;;;;;;10.57;7.17;;;-8.90;99.90;;;;;;5084089;28;20417;-77
2022/01/10 08:24:04;;;;;;;12.90;9.13;;;-8.70;99.90;;;;;;5074509;28;20174;-76
2022/01/10 08:26:30;;;;;;;11.53;8.07;;;-9.20;99.90;;;;;;5074059;28;20170;-76
2022/01/10 08:28:55;;;;;;;16.40;8.57;;;-9.10;99.90;;;;;;5073342;28;21045;-77
2022/01/10 08:31:21;;;;;;;11.80;8.60;;;-8.80;99.90;;;;;;5075033;28;20543;-76
2022/01/10 08:33:49;;;;;;;13.13;8.17;;;-8.70;99.90;;;;;;5075398;28;20635;-75
2022/01/10 08:36:16;;;;;;;13.80;7.97;;;-8.60;99.90;;;;;;5094192;28;20165;-77
2022/01/10 08:38:42;;;;;;;8.87;6.90;;;-6.30;99.90;;;;;;5092806;28;20441;-77
2022/01/10 08:41:08;;;;;;;12.00;8.13;;;-6.50;99.90;;;;;;5091200;28;20520;-75
2022/01/10 08:43:34;;;;;;;10.43;7.67;;;-8.20;99.90;;;;;;5094545;28;20179;-76
2022/01/10 08:46:00;;;;;;;11.07;7.93;;;-8.30;99.90;;;;;;5094292;28;20181;-76
2022/01/10 08:48:26;;;;;;;14.50;7.87;;;-7.60;99.90;;;;;;5093621;28;20299;-76
2022/01/10 08:50:52;;;;;;;11.00;7.50;;;-5.50;99.90;;;;;;5094498;28;20861;-76
2022/01/10 08:53:17;;;;;;;11.97;8.00;;;-8.30;99.90;;;;;;5094663;28;20414;-81
2022/01/10 08:55:44;;;;;;;10.50;6.87;;;-8.20;99.90;;;;;;5094320;28;20177;-76
2022/01/10 08:58:10;;;;;;;11.27;7.70;;;-8.30;99.90;;;;;;5098407;28;20203;-76
2022/01/10 09:00:36;;;;;;;9.13;6.50;;;-8.00;99.90;;;;;;5097905;28;20419;-77
2022/01/10 09:03:03;;;;;;;11.10;8.63;;;-5.80;99.90;;;;;;5096406;28;20433;-75
2022/01/10 09:05:29;;;;;;;8.23;7.20;;;-6.70;99.90;;;;;;5097555;28;20194;-74
2022/01/10 09:08:01;;;;;;;15.00;9.20;;;-6.10;99.90;;;;;;5098354;28;20398;-75
2022/01/10 09:10:28;;;;;;;9.50;7.40;;;-8.30;99.90;;;;;;5097432;28;20458;-75
2022/01/10 09:12:54;;;;;;;10.93;7.73;;;-8.40;99.90;;;;;;5097973;28;20417;-75
2022/01/10 09:15:20;;;;;;;11.20;7.53;;;-6.10;99.90;;;;;;5096588;28;20414;-74
2022/01/10 09:17:46;;;;;;;13.13;9.13;;;-8.20;99.90;;;;;;5097174;28;20266;-75
2022/01/10 09:20:14;;;;;;;10.13;7.83;;;-8.20;99.90;;;;;;5098488;28;20399;-74
2022/01/10 09:22:40;;;;;;;11.10;7.57;;;-8.10;99.90;;;;;;5097030;28;20411;-75
2022/01/10 09:25:06;;;;;;;9.93;7.10;;;-8.40;99.90;;;;;;5094858;28;20463;-75
2022/01/10 09:27:34;;;;;;;8.10;6.60;;;-8.50;99.90;;;;;;5097794;28;20539;-75
2022/01/10 09:29:59;;;;;;;12.47;6.73;;;-6.80;99.90;;;;;;5096109;28;20455;-83
2022/01/10 09:32:25;;;;;;;10.13;7.50;;;-8.80;99.90;;;;;;5096796;28;20720;-75
2022/01/10 09:34:51;;;;;;;9.70;5.70;;;-9.00;99.90;;;;;;5096982;28;20212;-75
2022/01/10 09:37:17;;;;;;;8.47;5.87;;;-9.00;99.90;;;;;;5094305;28;20175;-74
2022/01/10 09:39:43;;;;;;;10.33;7.90;;;-6.20;99.90;;;;;;5086657;28;20426;-78
2022/01/10 09:42:10;;;;;;;7.63;6.37;;;-6.10;99.90;;;;;;5090466;28;20192;-74
2022/01/10 09:44:36;;;;;;;7.43;6.70;;;-8.10;99.90;;;;;;5076184;28;20511;-74
2022/01/10 09:47:03;;;;;;;9.50;6.37;;;-9.70;99.90;;;;;;5082890;28;20415;-76
2022/01/10 09:49:35;;;;;;;8.57;5.77;;;-9.70;99.90;;;;;;5095243;28;20206;-75
2022/01/10 09:52:00;;;;;;;9.03;7.03;;;-9.00;99.90;;;;;;5095707;28;20403;-75
2022/01/10 09:54:26;;;;;;;10.83;6.50;;;-9.30;99.90;;;;;;5095930;28;20414;-74
2022/01/10 09:56:52;;;;;;;8.13;6.80;;;-9.20;99.90;;;;;;5096518;28;20173;-75
2022/01/10 09:59:18;;;;;;;7.10;5.57;;;-11.20;99.90;;;;;;5096007;28;20585;-75
2022/01/10 10:01:50;;;;;;;11.43;7.47;;;-10.80;99.90;;;;;;5094967;28;20218;-76
2022/01/10 10:04:18;;;;;;;7.77;5.77;;;-10.60;99.90;;;;;;5095009;28;20545;-74
2022/01/10 10:06:45;;;;;;;6.57;5.87;;;-9.00;99.90;;;;;;5095689;28;20831;-75
2022/01/10 10:09:13;;;;;;;7.57;6.87;;;-8.10;99.90;;;;;;5095118;28;20525;-74
2022/01/10 10:11:48;;;;;;;7.47;6.50;;;-10.00;99.90;;;;;;5095083;28;20415;-75
2022/01/10 10:14:17;;;;;;;8.53;5.97;;;-10.20;99.90;;;;;;5096200;28;20437;-74
2022/01/10 10:16:51;;;;;;;7.37;5.93;;;-7.90;99.90;;;;;;5095091;28;20420;-73
2022/01/10 10:19:27;;;;;;;9.30;7.37;;;-10.20;99.90;;;;;;5096681;28;20423;-74
2022/01/10 10:21:55;;;;;;;8.13;6.57;;;-10.00;99.90;;;;;;5094803;28;20425;-74
2022/01/10 10:24:22;;;;;;;7.67;6.60;;;-10.30;99.90;;;;;;5095543;28;20407;-77
2022/01/10 10:26:49;;;;;;;8.60;6.37;;;-10.10;99.90;;;;;;5096115;28;20490;-75
2022/01/10 10:29:17;;;;;;;10.00;8.03;;;-9.90;99.90;;;;;;5095294;28;20469;-75
2022/01/10 10:31:48;;;;;;;8.23;7.07;;;-7.50;99.90;;;;;;5096157;28;20402;-76
2022/01/10 10:34:23;;;;;;;9.17;6.90;;;-9.50;99.90;;;;;;5095778;28;20455;-76
2022/01/10 10:37:03;;;;;;;7.63;6.60;;;-10.10;99.90;;;;;;5096049;28;20423;-76
2022/01/10 10:39:32;;;;;;;7.40;5.97;;;-10.60;99.90;;;;;;5095986;28;20477;-75
2022/01/10 10:42:06;;;;;;;9.23;6.63;;;-7.70;99.90;;;;;;5095412;28;20503;-75
2022/01/10 10:44:32;;;;;;;8.30;6.53;;;-9.80;99.90;;;;;;5096234;28;20453;-74
2022/01/10 10:46:58;;;;;;;9.77;7.00;;;-9.20;99.90;;;;;;5096104;28;20419;-74
2022/01/10 10:49:32;;;;;;;8.87;7.20;;;-9.70;99.90;;;;;;5094813;28;20454;-74
2022/01/10 10:52:00;;;;;;;8.47;6.53;;;-10.10;99.90;;;;;;5093774;28;20827;-75
2022/01/10 10:54:31;;;;;;;10.83;7.83;;;-10.10;99.90;;;;;;5094963;28;20461;-75
2022/01/10 10:56:58;;;;;;;8.83;6.70;;;-9.00;99.90;;;;;;5096304;28;20440;-74
2022/01/10 10:59:29;;;;;;;7.97;7.07;;;-9.60;99.90;;;;;;5095586;28;20400;-74
2022/01/10 11:01:56;;;;;;;12.43;7.40;;;-9.60;99.90;;;;;;5091650;28;20788;-76
2022/01/10 11:04:22;;;;;;;10.97;8.00;;;-10.00;99.90;;;;;;5087779;28;20468;-74
2022/01/10 11:06:49;;;;;;;9.27;7.37;;;-10.50;99.90;;;;;;5093587;28;20423;-74
2022/01/10 11:09:15;;;;;;;8.50;7.13;;;-10.20;99.90;;;;;;5095404;28;20214;-74
2022/01/10 11:11:42;;;;;;;9.57;8.33;;;-10.40;99.90;;;;;;5094780;28;20437;-74
2022/01/10 11:14:11;;;;;;;12.80;8.57;;;-9.80;99.90;;;;;;5095968;28;20506;-74
2022/01/10 11:16:39;;;;;;;17.20;9.37;;;-9.50;99.90;;;;;;5094056;28;20411;-76
2022/01/10 11:19:16;;;;;;;11.20;7.80;;;-7.10;99.90;;;;;;5095869;28;20396;-75
2022/01/10 11:21:51;;;;;;;11.73;7.90;;;-8.50;99.90;;;;;;5095082;28;20484;-76
2022/01/10 11:24:42;;;;;;;12.23;7.67;;;-9.00;99.90;;;;;;5095587;28;20510;-76
2022/01/10 11:27:37;;;;;;;14.23;8.57;;;-8.80;99.90;;;;;;5092404;28;20483;-77
2022/01/10 11:30:24;;;;;;;12.40;8.63;;;-9.00;99.90;;;;;;5094295;28;20756;-76
2022/01/10 11:32:57;;;;;;;11.17;7.83;;;-8.90;99.90;;;;;;5074884;28;20435;-76
2022/01/10 11:35:27;;;;;;;9.33;7.83;;;-9.00;99.90;;;;;;5089679;28;20418;-76
2022/01/10 11:37:54;;;;;;;10.63;8.00;;;-8.90;99.90;;;;;;5094545;28;20414;-74
2022/01/10 11:40:21;;;;;;;10.13;7.70;;;-9.10;99.90;;;;;;5102440;28;20411;-77
2022/01/10 11:42:59;;;;;;;10.90;8.27;;;-9.40;99.90;;;;;;5095808;28;20410;-76
2022/01/10 11:45:26;;;;;;;13.97;10.93;;;-9.50;99.90;;;;;;5095158;28;20434;-77
2022/01/10 11:48:09;;;;;;;11.20;8.17;;;-9.40;99.90;;;;;;5094574;28;20706;-74
2022/01/10 11:50:35;;;;;;;16.23;9.60;;;-9.40;99.90;;;;;;5096226;28;20754;-77
2022/01/10 11:53:03;;;;;;;11.43;8.67;;;-8.70;99.90;;;;;;5091201;28;20759;-74
2022/01/10 11:55:43;;;;;;;11.73;9.07;;;-9.30;99.90;;;;;;5090258;28;20902;-79
2022/01/10 11:58:21;;;;;;;11.03;7.90;;;-7.20;99.90;;;;;;5093841;28;20399;-76
2022/01/10 12:00:47;;;;;;;10.63;7.03;;;-9.50;99.90;;;;;;5093410;28;20422;-75
2022/01/10 12:03:13;;;;;;;9.47;8.10;;;-9.60;99.90;;;;;;5096559;28;20893;-74
2022/01/10 12:05:40;;;;;;;9.70;8.73;;;-9.20;99.90;;;;;;5094037;28;20490;-79
2022/01/10 12:08:06;;;;;;;9.20;7.77;;;-9.40;99.90;;;;;;5095709;28;20166;-75
2022/01/10 12:10:33;;;;;;;8.50;7.27;;;-9.40;99.90;;;;;;5096708;28;20451;-75
2022/01/10 12:13:05;;;;;;;12.70;8.67;;;-8.00;99.90;;;;;;5093434;28;20697;-74
2022/01/10 12:15:32;;;;;;;11.10;8.50;;;-9.60;99.90;;;;;;5095000;28;20396;-73
2022/01/10 12:17:58;;;;;;;9.17;7.30;;;-9.90;99.90;;;;;;5093709;28;20912;-86
2022/01/10 12:20:24;;;;;;;8.87;7.33;;;-7.40;99.90;;;;;;5094903;28;20413;-76
2022/01/10 12:22:54;;;;;;;10.37;8.27;;;-8.20;99.90;;;;;;5094287;28;20411;-74
2022/01/10 12:25:21;;;;;;;10.63;8.60;;;-6.40;99.90;;;;;;5091140;28;20178;-77
2022/01/10 12:27:53;;;;;;;14.27;8.40;;;-7.10;99.90;;;;;;5093621;28;20406;-77
2022/01/10 12:30:21;;;;;;;10.53;7.53;;;-8.60;99.90;;;;;;5091627;28;20478;-77
2022/01/10 12:32:47;;;;;;;11.27;10.03;;;-8.90;99.90;;;;;;5076122;28;20407;-76
2022/01/10 12:35:15;;;;;;;8.70;7.17;;;-9.30;99.90;;;;;;5094011;28;20447;-75
2022/01/10 12:37:41;;;;;;;10.53;7.70;;;-8.50;99.90;;;;;;5098151;28;20419;-76
2022/01/10 12:40:07;;;;;;;10.70;7.53;;;-8.90;99.90;;;;;;5097373;28;20450;-77
2022/01/10 12:42:33;;;;;;;10.27;8.60;;;-9.50;99.90;;;;;;5098884;28;20455;-75
2022/01/10 12:44:59;;;;;;;10.83;8.10;;;-9.50;99.90;;;;;;5098807;28;20395;-75
2022/01/10 12:47:26;;;;;;;9.50;8.03;;;-9.80;99.90;;;;;;5098212;28;20405;-74
2022/01/10 12:49:53;;;;;;;10.43;6.70;;;-9.60;99.90;;;;;;5097101;28;20275;-75
2022/01/10 12:52:24;;;;;;;15.03;9.13;;;-9.00;99.90;;;;;;5098249;28;20399;-76
2022/01/10 12:54:50;;;;;;;8.97;7.53;;;-8.80;99.90;;;;;;5088057;28;20893;-74
2022/01/10 12:57:17;;;;;;;12.57;8.20;;;-9.00;99.90;;;;;;5077302;28;20488;-74
2022/01/10 12:59:43;;;;;;;10.03;8.03;;;-8.50;99.90;;;;;;5087918;28;20440;-74
2022/01/10 13:02:09;;;;;;;14.03;6.93;;;-7.90;99.90;;;;;;5096794;28;20492;-75
2022/01/10 13:04:40;;;;;;;8.27;7.03;;;-8.50;99.90;;;;;;5098394;28;20395;-75
2022/01/10 13:07:15;;;;;;;11.53;7.23;;;-9.10;99.90;;;;;;5091414;28;20636;-75
2022/01/10 13:09:42;;;;;;;9.97;7.97;;;-8.90;99.90;;;;;;5097036;28;20545;-75
2022/01/10 13:12:23;;;;;;;13.10;8.83;;;-9.00;99.90;;;;;;5098321;28;20492;-74
2022/01/10 13:14:49;;;;;;;12.00;6.90;;;-7.80;99.90;;;;;;5096973;28;20720;-75
2022/01/10 13:17:23;;;;;;;14.17;7.57;;;-8.40;99.90;;;;;;5097656;28;20506;-74
2022/01/10 13:20:10;;;;;;;10.87;7.60;;;-8.90;99.90;;;;;;5097438;28;20190;-75
2022/01/10 13:22:38;;;;;;;14.50;8.03;;;-9.00;99.90;;;;;;5092254;28;20834;-75
2022/01/10 13:25:12;;;;;;;15.60;8.50;;;-9.30;99.90;;;;;;5095374;28;20407;-76
2022/01/10 13:27:38;;;;;;;16.87;8.70;;;-8.80;99.90;;;;;;5097716;28;20387;-74
2022/01/10 13:30:25;;;;;;;14.37;9.47;;;-8.70;99.90;;;;;;5096847;28;20435;-75
2022/01/10 13:32:56;;;;;;;9.57;8.53;;;-8.10;99.90;;;;;;5094223;28;20170;-76
2022/01/10 13:35:23;;;;;;;11.53;8.37;;;-8.10;99.90;;;;;;5097782;28;20482;-76
2022/01/10 13:37:55;;;;;;;11.60;8.40;;;-7.40;99.90;;;;;;5096512;28;20411;-76
2022/01/10 13:40:25;;;;;;;11.13;8.10;;;-6.80;99.90;;;;;;5096901;28;20403;-75
2022/01/10 13:42:59;;;;;;;12.40;8.97;;;-8.90;99.90;;;;;;5097388;28;20398;-76